Time;durP1;ratioP1;P1;durP2;ratioP2;P2;SDS_P1;SDS_P2;PMS_P1;PMS_P2;Temp;Humidity;BMP_temperature;BMP_pressure;BME280_temperature;BME280_humidity;BME280_pressure;Samples;Min_cycle;Max_cycle;Signal;HPM_P1;HPM_P2
2023/06/06 00:01:40;;;;;;;;;12.33;12.33;;;;;17.98;100.00;99646.28;6313349;20;3530605;-58
2023/06/06 00:04:08;;;;;;;;;11.50;10.00;;;;;17.96;100.00;99638.31;6284222;20;2794161;-59
2023/06/06 00:06:38;;;;;;;;;11.67;10.00;;;;;17.86;100.00;99637.44;6282826;20;2783756;-58
2023/06/06 00:09:05;;;;;;;;;12.00;11.00;;;;;17.83;100.00;99640.44;6313164;20;2791959;-58
2023/06/06 00:11:35;;;;;;;;;11.00;11.00;;;;;17.96;100.00;99637.47;6278509;20;3516015;-58
2023/06/06 00:14:06;;;;;;;;;14.67;14.67;;;;;17.83;100.00;99643.16;6313856;20;3533569;-58
2023/06/06 00:16:34;;;;;;;;;14.00;14.00;;;;;17.92;100.00;99649.59;6313652;20;3536742;-58
2023/06/06 00:19:03;;;;;;;;;13.33;13.00;;;;;18.03;100.00;99635.00;6281813;20;3524656;-58
2023/06/06 00:21:32;;;;;;;;;13.67;13.67;;;;;18.02;100.00;99639.59;6313972;20;3533649;-58
2023/06/06 00:24:01;;;;;;;;;15.00;14.00;;;;;17.92;100.00;99647.72;6282747;20;3532677;-58
2023/06/06 00:26:29;;;;;;;;;16.00;14.67;;;;;17.80;100.00;99642.56;6315905;20;2812944;-59
2023/06/06 00:28:57;;;;;;;;;16.00;15.00;;;;;17.86;100.00;99639.31;6312061;20;3546574;-58
2023/06/06 00:31:25;;;;;;;;;13.00;12.33;;;;;17.83;100.00;99651.31;6281448;20;3534636;-58
2023/06/06 00:33:54;;;;;;;;;12.67;12.67;;;;;17.85;100.00;99645.72;6280643;20;3522462;-58
2023/06/06 00:36:22;;;;;;;;;13.33;12.00;;;;;17.86;100.00;99642.88;6310084;20;3528509;-58
2023/06/06 00:38:50;;;;;;;;;13.67;11.33;;;;;17.86;100.00;99642.03;6280566;20;3508690;-58
2023/06/06 00:41:18;;;;;;;;;13.00;13.00;;;;;17.75;100.00;99638.41;6276044;20;3520056;-59
2023/06/06 00:43:46;;;;;;;;;12.00;11.00;;;;;17.80;100.00;99642.56;6311371;20;2794127;-58
2023/06/06 00:46:15;;;;;;;;;16.50;12.00;;;;;17.62;100.00;99635.09;6284260;20;2788836;-59
2023/06/06 00:48:43;;;;;;;;;15.00;13.50;;;;;17.85;100.00;99640.28;6281257;20;2487962;-60
2023/06/06 00:51:12;;;;;;;;;16.33;15.00;;;;;17.75;100.00;99643.84;6279464;20;3537778;-59
2023/06/06 00:53:39;;;;;;;;;15.50;15.00;;;;;17.94;100.00;99634.03;6281926;20;2489937;-59
2023/06/06 00:56:09;;;;;;;;;15.67;14.00;;;;;17.78;100.00;99635.41;6281254;20;3529514;-59
2023/06/06 00:58:37;;;;;;;;;13.33;13.33;;;;;17.80;100.00;99629.00;6276294;20;3529455;-58
2023/06/06 01:01:04;;;;;;;;;10.00;9.00;;;;;17.92;100.00;99626.00;6317165;20;2764871;-59
2023/06/06 01:03:34;;;;;;;;;13.00;12.33;;;;;17.84;100.00;99617.72;6283290;20;3518064;-59
2023/06/06 01:06:02;;;;;;;;;14.00;14.00;;;;;17.70;100.00;99616.25;6313447;20;2798277;-58
2023/06/06 01:08:30;;;;;;;;;15.00;15.00;;;;;17.70;100.00;99629.81;6281040;20;3539886;-58
2023/06/06 01:11:17;;;;;;;;;20.00;17.00;;;;;17.75;100.00;99621.25;6277699;20;2832687;-59
2023/06/06 01:14:06;;;;;;;;;16.00;14.50;;;;;17.68;100.00;99622.81;6284416;20;2805587;-58
2023/06/06 01:16:35;;;;;;;;;17.00;14.00;;;;;17.70;100.00;99621.69;6281765;20;2791925;-58
2023/06/06 01:19:09;;;;;;;;;14.67;13.67;;;;;17.96;100.00;99622.00;6306927;20;3522167;-58
2023/06/06 01:21:42;;;;;;;;;15.00;12.67;;;;;17.82;100.00;99608.84;6279522;20;3519061;-58
2023/06/06 01:24:12;;;;;;;;;15.00;15.00;;;;;17.60;100.00;99618.09;6275706;20;2491975;-58
2023/06/06 01:26:40;;;;;;;;;15.00;15.00;;;;;17.66;100.00;99614.81;6275118;20;2811895;-59
2023/06/06 01:29:09;;;;;;;;;13.67;13.67;;;;;17.68;100.00;99615.53;6278847;20;3531838;-58
2023/06/06 01:31:45;;;;;;;;;11.50;11.50;;;;;17.53;100.00;99608.78;6310716;20;2498308;-58
2023/06/06 01:34:30;;;;;;;;;16.00;15.00;;;;;17.61;100.00;99610.81;6276870;20;3544012;-58
2023/06/06 01:37:16;;;;;;;;;17.00;16.00;;;;;17.71;100.00;99612.53;6274375;20;2491947;-59
2023/06/06 01:39:48;;;;;;;;;15.00;13.67;;;;;17.72;100.00;99618.81;6278189;20;3531486;-59
2023/06/06 01:42:19;;;;;;;;;15.67;15.67;;;;;17.76;100.00;99614.81;6276785;20;3550365;-59
2023/06/06 01:44:52;;;;;;;;;15.67;15.67;;;;;17.73;100.00;99610.53;6275114;20;3543997;-59
2023/06/06 01:47:21;;;;;;;;;16.00;13.00;;;;;17.83;100.00;99610.56;6273730;20;3529503;-59
2023/06/06 01:49:49;;;;;;;;;15.50;15.50;;;;;17.75;100.00;99613.97;6268516;20;2483633;-59
2023/06/06 01:52:18;;;;;;;;;17.33;15.33;;;;;17.66;100.00;99612.09;6271965;20;3548183;-59
2023/06/06 01:54:47;;;;;;;;;16.50;13.50;;;;;17.52;100.00;99615.22;6274509;20;2819036;-59
2023/06/06 01:57:15;;;;;;;;;17.33;15.33;;;;;17.48;100.00;99611.94;6274711;20;3553417;-59
2023/06/06 01:59:43;;;;;;;;;16.00;16.00;;;;;17.65;100.00;99613.09;6272591;20;2825256;-59
2023/06/06 02:02:11;;;;;;;;;16.33;15.33;;;;;17.65;100.00;99607.66;6278317;20;3552491;-59
2023/06/06 02:04:39;;;;;;;;;17.00;15.00;;;;;17.65;100.00;99613.09;6310251;20;2486664;-60
2023/06/06 02:07:08;;;;;;;;;19.67;16.00;;;;;17.56;100.00;99611.22;6281262;20;2825302;-58
2023/06/06 02:09:36;;;;;;;;;14.00;13.00;;;;;17.39;100.00;99611.91;6307709;20;2790941;-59
2023/06/06 02:12:05;;;;;;;;;15.67;15.67;;;;;17.61;100.00;99606.22;6309263;20;3560640;-59
2023/06/06 02:14:32;;;;;;;;;18.00;15.00;;;;;17.59;100.00;99608.25;6277024;20;2492016;-59
2023/06/06 02:17:01;;;;;;;;;17.00;16.00;;;;;17.57;100.00;99606.66;6276032;20;2826470;-56
2023/06/06 02:19:31;;;;;;;;;18.67;16.67;;;;;17.60;100.00;99611.81;6278313;20;3558729;-59
2023/06/06 02:21:59;;;;;;;;;15.67;13.00;;;;;17.65;100.00;99618.53;6276921;20;3536863;-58
2023/06/06 02:24:28;;;;;;;;;16.33;15.00;;;;;17.59;100.00;99620.94;6279364;20;3544038;-59
2023/06/06 02:26:57;;;;;;;;;13.67;13.67;;;;;17.66;100.00;99620.22;6279969;20;3527422;-59
2023/06/06 02:29:26;;;;;;;;;15.00;15.00;;;;;17.58;100.00;99616.53;6308323;20;3544033;-59
2023/06/06 02:31:54;;;;;;;;;17.33;15.67;;;;;17.50;100.00;99620.78;6274579;20;3552356;-58
2023/06/06 02:34:24;;;;;;;;;17.00;13.50;;;;;17.66;100.00;99625.66;6278921;20;2500336;-59
2023/06/06 02:36:53;;;;;;;;;15.50;14.00;;;;;17.63;100.00;99631.38;6284161;20;2496269;-59
2023/06/06 02:39:21;;;;;;;;;17.00;15.33;;;;;17.54;100.00;99626.81;6282287;20;3555536;-59
2023/06/06 02:41:50;;;;;;;;;15.67;14.67;;;;;17.57;100.00;99623.81;6276397;20;3541403;-59
2023/06/06 02:44:19;;;;;;;;;13.67;13.67;;;;;17.68;100.00;99622.81;6282302;20;3529387;-59
2023/06/06 02:46:47;;;;;;;;;17.00;16.00;;;;;17.63;100.00;99633.25;6282622;20;2496113;-59
2023/06/06 02:49:15;;;;;;;;;16.00;15.67;;;;;17.60;100.00;99630.81;6284046;20;3532036;-60
2023/06/06 02:51:43;;;;;;;;;17.67;15.67;;;;;17.61;100.00;99638.81;6281697;20;3555504;-59
2023/06/06 02:54:12;;;;;;;;;13.33;13.33;;;;;17.57;100.00;99626.53;6283663;20;3520100;-60
2023/06/06 02:56:40;;;;;;;;;16.00;12.00;;;;;17.53;100.00;99625.06;6281009;20;3538832;-62
2023/06/06 02:59:07;;;;;;;;;15.00;14.00;;;;;17.48;100.00;99627.34;6317442;20;2807570;-60
2023/06/06 03:01:36;;;;;;;;;14.00;14.00;;;;;17.43;100.00;99632.34;6283044;20;3519157;-59
2023/06/06 03:04:05;;;;;;;;;13.33;12.33;;;;;17.42;100.00;99627.91;6313581;20;3537764;-59
2023/06/06 03:06:32;;;;;;;;;16.00;14.00;;;;;17.31;100.00;99629.75;6282011;20;2498249;-59
2023/06/06 03:09:04;;;;;;;;;17.00;17.00;;;;;17.26;100.00;99623.88;6284779;20;2492008;-60
2023/06/06 03:11:32;;;;;;;;;17.00;16.00;;;;;17.20;100.00;99629.88;6284414;20;2827407;-60
2023/06/06 03:14:00;;;;;;;;;16.33;16.33;;;;;17.22;100.00;99616.16;6317004;20;3560702;-60
2023/06/06 03:16:28;;;;;;;;;15.50;15.50;;;;;17.27;100.00;99614.75;6313401;20;2823213;-59
2023/06/06 03:18:56;;;;;;;;;16.33;15.00;;;;;17.29;100.00;99620.03;6282992;20;3557541;-60
2023/06/06 03:21:25;;;;;;;;;15.50;14.00;;;;;17.28;100.00;99621.03;6281105;20;2810689;-60
2023/06/06 03:23:53;;;;;;;;;18.00;18.00;;;;;17.41;100.00;99620.78;6282147;20;2834683;-59
2023/06/06 03:26:26;;;;;;;;;20.50;19.00;;;;;17.19;100.00;99622.72;6281569;20;2829534;-60
2023/06/06 03:28:56;;;;;;;;;18.50;17.00;;;;;17.38;100.00;99626.47;6281341;20;2496094;-59
2023/06/06 03:31:24;;;;;;;;;18.00;16.00;;;;;17.54;100.00;99626.81;6280865;20;2824225;-59
2023/06/06 03:33:53;;;;;;;;;20.33;19.67;;;;;17.45;100.00;99636.63;6278267;20;2500449;-59
2023/06/06 03:36:21;;;;;;;;;18.67;18.00;;;;;17.49;100.00;99640.81;6318932;20;3568018;-59
2023/06/06 03:38:49;;;;;;;;;16.00;16.00;;;;;17.52;100.00;99639.66;6280471;20;2491926;-59
2023/06/06 03:41:17;;;;;;;;;18.33;17.00;;;;;17.42;100.00;99644.22;6316887;20;3564939;-59
2023/06/06 03:43:45;;;;;;;;;19.67;16.67;;;;;17.48;100.00;99643.63;6317224;20;3572134;-59
2023/06/06 03:46:14;;;;;;;;;22.00;20.00;;;;;17.46;100.00;99656.53;6278767;20;2836833;-59
2023/06/06 03:48:42;;;;;;;;;19.00;18.00;;;;;17.53;100.00;99652.22;6279793;20;2835396;-59
2023/06/06 03:51:10;;;;;;;;;19.50;18.50;;;;;17.66;100.00;99658.25;6282843;20;2828532;-59
2023/06/06 03:53:38;;;;;;;;;16.00;15.00;;;;;17.57;100.00;99659.09;6279156;20;2500401;-57
2023/06/06 03:56:06;;;;;;;;;23.00;20.00;;;;;17.60;100.00;99660.69;6274680;20;2831548;-59
2023/06/06 03:58:38;;;;;;;;;24.33;21.00;;;;;17.67;100.00;99651.84;6279948;20;2853536;-59
2023/06/06 04:01:06;;;;;;;;;17.00;17.00;;;;;17.68;100.00;99644.53;6303489;20;3574298;-59
2023/06/06 04:03:38;;;;;;;;;21.33;19.33;;;;;17.64;100.00;99654.84;6281101;20;3577392;-60
2023/06/06 04:06:10;;;;;;;;;18.00;18.00;;;;;17.66;100.00;99652.81;6281937;20;2835708;-59
2023/06/06 04:08:40;;;;;;;;;22.33;20.67;;;;;17.60;100.00;99652.53;6277253;20;3579403;-59
2023/06/06 04:11:08;;;;;;;;;20.00;18.00;;;;;17.95;100.00;99652.03;6280334;20;2831918;-59
2023/06/06 04:13:37;;;;;;;;;22.00;18.00;;;;;17.78;100.00;99654.41;6279929;20;2839961;-60
2023/06/06 04:16:05;;;;;;;;;20.33;19.67;;;;;17.81;100.00;99661.47;6281615;20;3581518;-60
2023/06/06 04:18:34;;;;;;;;;23.67;21.33;;;;;17.78;100.00;99651.69;6278232;20;2838032;-60
2023/06/06 04:21:02;;;;;;;;;19.00;18.33;;;;;17.82;100.00;99662.31;6314918;20;3572256;-59
2023/06/06 04:23:31;;;;;;;;;19.00;19.00;;;;;17.84;100.00;99657.59;6282587;20;3567048;-59
2023/06/06 04:26:03;;;;;;;;;22.33;19.00;;;;;18.05;100.00;99652.03;6279279;20;2841955;-59
2023/06/06 04:28:31;;;;;;;;;16.33;16.33;;;;;18.01;100.00;99656.03;6313421;20;3596156;-59
2023/06/06 04:31:00;;;;;;;;;19.33;17.00;;;;;18.02;100.00;99660.47;6282209;20;3579452;-59
2023/06/06 04:33:30;;;;;;;;;22.00;18.67;;;;;17.97;100.00;99656.31;6279161;20;2831656;-59
2023/06/06 04:36:00;;;;;;;;;24.00;22.67;;;;;17.95;100.00;99658.31;6316735;20;3572135;-59
2023/06/06 04:38:29;;;;;;;;;19.50;18.50;;;;;18.06;100.00;99643.75;6279081;20;2837770;-58
2023/06/06 04:41:01;;;;;;;;;18.50;18.00;;;;;18.01;100.00;99640.59;6281084;20;2831609;-58
2023/06/06 04:43:49;;;;;;;;;20.33;19.00;;;;;18.03;100.00;99649.44;6280567;20;3564854;-57
2023/06/06 04:46:21;;;;;;;;;21.67;18.33;;;;;17.98;100.00;99646.28;6278006;20;3585686;-56
2023/06/06 04:48:54;;;;;;;;;19.67;17.00;;;;;18.10;100.00;99647.03;6313833;20;3577445;-58
2023/06/06 04:51:33;;;;;;;;;22.33;20.67;;;;;18.07;100.00;99650.03;6278016;20;2844120;-58
2023/06/06 04:54:06;;;;;;;;;21.00;20.00;;;;;17.98;100.00;99662.59;6309576;20;3577364;-58
2023/06/06 04:56:35;;;;;;;;;21.33;20.00;;;;;18.06;100.00;99653.75;6279409;20;2829629;-58
2023/06/06 04:59:06;;;;;;;;;22.33;21.00;;;;;18.03;100.00;99649.44;6312025;20;3579471;-58
2023/06/06 05:01:36;;;;;;;;;24.00;21.50;;;;;18.03;100.00;99646.72;6280440;20;2835837;-55
2023/06/06 05:04:07;;;;;;;;;28.50;23.00;;;;;17.96;100.00;99657.31;6279819;20;2832620;-59
2023/06/06 05:06:36;;;;;;;;;27.33;23.00;;;;;18.10;100.00;99655.19;6280246;20;3593050;-58
2023/06/06 05:09:04;;;;;;;;;26.33;22.33;;;;;18.18;100.00;99652.59;6313625;20;3586691;-56
2023/06/06 05:11:34;;;;;;;;;24.00;23.00;;;;;18.18;100.00;99656.16;6281822;20;3585752;-58
2023/06/06 05:14:03;;;;;;;;;24.00;20.00;;;;;18.18;100.00;99658.88;6280482;20;2838959;-58
2023/06/06 05:16:31;;;;;;;;;23.00;21.33;;;;;18.23;100.00;99660.31;6281586;20;3575289;-58
2023/06/06 05:18:59;;;;;;;;;20.33;18.67;;;;;18.30;100.00;99666.88;6281845;20;3566953;-58
2023/06/06 05:21:27;;;;;;;;;21.67;21.67;;;;;18.31;100.00;99658.59;6282170;20;3583625;-59
2023/06/06 05:23:58;;;;;;;;;23.33;23.33;;;;;18.33;100.00;99661.19;6276972;20;3583322;-59
2023/06/06 05:26:30;;;;;;;;;25.33;23.00;;;;;18.26;100.00;99654.59;6280216;20;2854577;-59
2023/06/06 05:29:00;;;;;;;;;26.67;19.67;;;;;18.37;100.00;99657.16;6314194;20;3592083;-59
2023/06/06 05:31:28;;;;;;;;;22.00;22.00;;;;;18.35;100.00;99654.59;6283546;20;3569601;-59
2023/06/06 05:33:56;;;;;;;;;25.67;24.33;;;;;18.43;100.00;99656.56;6280197;20;3583576;-59
2023/06/06 05:36:25;;;;;;;;;22.00;22.00;;;;;18.51;100.00;99659.44;6274037;20;3582638;-59
2023/06/06 05:38:53;;;;;;;;;27.00;27.00;;;;;18.57;100.00;99661.56;6281098;20;3598209;-58
2023/06/06 05:41:22;;;;;;;;;23.00;21.33;;;;;18.50;100.00;99651.41;6279647;20;3586773;-59
2023/06/06 05:43:51;;;;;;;;;24.00;22.67;;;;;18.58;100.00;99665.97;6280502;20;3582670;-59
2023/06/06 05:46:19;;;;;;;;;29.67;26.00;;;;;18.38;100.00;99664.31;6283591;20;3580433;-59
2023/06/06 05:48:47;;;;;;;;;29.33;28.00;;;;;18.37;100.00;99665.31;6277931;20;3601414;-60
2023/06/06 05:51:17;;;;;;;;;31.00;30.00;;;;;18.29;100.00;99668.75;6282150;20;3600408;-60
2023/06/06 05:53:45;;;;;;;;;43.00;34.33;;;;;18.18;100.00;99664.31;6309761;20;3603412;-58
2023/06/06 05:56:17;;;;;;;;;37.33;31.67;;;;;18.26;100.00;99665.47;6287107;20;3604469;-59
2023/06/06 05:58:49;;;;;;;;;36.67;31.00;;;;;18.19;100.00;99662.47;6281342;20;3592214;-59
2023/06/06 06:01:18;;;;;;;;;41.00;33.00;;;;;18.24;100.00;99665.59;6284919;20;3608786;-60
2023/06/06 06:03:48;;;;;;;;;36.00;33.00;;;;;18.20;100.00;99667.75;6280551;20;2863038;-60
2023/06/06 06:06:19;;;;;;;;;39.00;35.00;;;;;18.23;100.00;99665.75;6314236;20;3582555;-60
2023/06/06 06:08:49;;;;;;;;;37.50;34.50;;;;;18.04;100.00;99672.91;6276448;20;2838872;-60
2023/06/06 06:11:18;;;;;;;;;37.67;32.67;;;;;18.02;100.00;99679.50;6287132;20;3611714;-60
2023/06/06 06:13:47;;;;;;;;;25.67;22.33;;;;;18.09;100.00;99677.91;6282441;20;3588817;-60
2023/06/06 06:16:15;;;;;;;;;37.33;34.33;;;;;18.09;100.00;99681.50;6317741;20;3594013;-60
2023/06/06 06:18:44;;;;;;;;;33.67;29.00;;;;;18.21;100.00;99680.34;6287829;20;3601393;-60
2023/06/06 06:21:13;;;;;;;;;36.67;32.00;;;;;18.29;100.00;99684.19;6283916;20;3611765;-60
2023/06/06 06:23:43;;;;;;;;;36.33;33.00;;;;;18.54;100.00;99675.44;6319522;20;3615986;-60
2023/06/06 06:26:12;;;;;;;;;37.00;31.67;;;;;18.56;100.00;99687.06;6286631;20;3606594;-60
2023/06/06 06:28:40;;;;;;;;;36.33;32.33;;;;;18.43;100.00;99681.03;6284027;20;3602372;-60
2023/06/06 06:31:09;;;;;;;;;37.00;33.00;;;;;18.47;100.00;99682.47;6281456;20;3591865;-61
2023/06/06 06:33:38;;;;;;;;;35.33;33.00;;;;;18.61;100.00;99687.44;6320522;20;3601325;-60
2023/06/06 06:36:07;;;;;;;;;36.67;33.67;;;;;18.42;100.00;99682.03;6282754;20;2854554;-60
2023/06/06 06:38:36;;;;;;;;;40.00;35.00;;;;;18.57;100.00;99691.47;6318540;20;3574260;-60
2023/06/06 06:41:05;;;;;;;;;45.00;37.67;;;;;18.78;100.00;99688.59;6285471;20;2859852;-60
2023/06/06 06:43:33;;;;;;;;;43.67;35.00;;;;;18.64;100.00;99689.91;6317747;20;3598326;-59
2023/06/06 06:46:02;;;;;;;;;40.00;32.67;;;;;18.55;100.00;99690.75;6288080;20;3603462;-60
2023/06/06 06:48:31;;;;;;;;;36.33;32.67;;;;;18.48;100.00;99697.75;6283833;20;2857733;-60
2023/06/06 06:50:59;;;;;;;;;42.67;35.67;;;;;18.34;100.00;99690.06;6317619;20;3588791;-60
2023/06/06 06:53:30;;;;;;;;;38.00;34.33;;;;;18.49;100.00;99696.78;6285470;20;3601301;-59
2023/06/06 06:55:59;;;;;;;;;40.00;34.33;;;;;18.36;100.00;99693.50;6282708;20;3595026;-60
2023/06/06 06:58:33;;;;;;;;;42.67;34.67;;;;;18.28;100.00;99701.53;6317943;20;3596113;-60
2023/06/06 07:01:05;;;;;;;;;40.33;35.00;;;;;18.48;100.00;99696.91;6286392;20;2853526;-59
2023/06/06 07:03:34;;;;;;;;;39.67;35.33;;;;;18.37;100.00;99695.22;6321018;20;3600304;-59
2023/06/06 07:06:03;;;;;;;;;45.67;35.00;;;;;18.31;100.00;99698.50;6286120;20;3616019;-59
2023/06/06 07:08:31;;;;;;;;;41.33;35.00;;;;;18.43;100.00;99700.06;6277794;20;3573195;-57
2023/06/06 07:10:59;;;;;;;;;39.67;33.00;;;;;18.44;100.00;99699.06;6279800;20;3610655;-59
2023/06/06 07:13:27;;;;;;;;;45.00;37.00;;;;;18.34;100.00;99695.50;6285545;20;3579520;-59
2023/06/06 07:15:56;;;;;;;;;44.33;37.00;;;;;18.42;100.00;99695.63;6285473;20;3593064;-60
2023/06/06 07:18:25;;;;;;;;;44.33;37.67;;;;;18.47;100.00;99696.06;6285332;20;2850334;-59
2023/06/06 07:20:53;;;;;;;;;43.00;36.00;;;;;18.31;100.00;99696.66;6312850;20;3582597;-59
2023/06/06 07:23:22;;;;;;;;;44.67;37.33;;;;;18.40;100.00;99698.53;6283309;20;3599255;-59
2023/06/06 07:25:50;;;;;;;;;45.33;38.00;;;;;18.49;100.00;99699.50;6312658;20;3582547;-59
2023/06/06 07:28:19;;;;;;;;;48.67;39.33;;;;;18.56;100.00;99697.94;6286694;20;3600230;-59
2023/06/06 07:30:47;;;;;;;;;50.00;39.00;;;;;18.51;100.00;99702.06;6318464;20;3619081;-59
2023/06/06 07:33:16;;;;;;;;;47.67;38.00;;;;;18.37;100.00;99700.66;6288327;20;3601312;-59
2023/06/06 07:35:44;;;;;;;;;46.33;39.00;;;;;18.42;100.00;99707.38;6286481;20;3578409;-60
2023/06/06 07:38:12;;;;;;;;;48.00;39.00;;;;;18.48;100.00;99703.19;6283834;20;2575288;-59
2023/06/06 07:40:40;;;;;;;;;46.33;37.67;;;;;18.63;100.00;99700.91;6317114;20;3604453;-59
2023/06/06 07:43:09;;;;;;;;;48.33;40.67;;;;;18.59;100.00;99700.34;6287377;20;3604481;-59
2023/06/06 07:45:37;;;;;;;;;47.33;38.67;;;;;18.74;100.00;99703.44;6283273;20;3602427;-60
2023/06/06 07:48:06;;;;;;;;;47.33;39.00;;;;;18.81;100.00;99710.06;6286974;20;3572134;-59
2023/06/06 07:50:35;;;;;;;;;45.67;38.00;;;;;18.92;100.00;99706.31;6279962;20;3593126;-59
2023/06/06 07:53:04;;;;;;;;;47.33;38.67;;;;;19.03;100.00;99708.84;6318214;20;3603391;-59
2023/06/06 07:55:32;;;;;;;;;44.33;38.00;;;;;19.32;100.00;99707.88;6286019;20;3591917;-59
2023/06/06 07:58:01;;;;;;;;;46.00;39.67;;;;;19.63;100.00;99700.28;6284179;20;2844193;-59
2023/06/06 08:00:30;;;;;;;;;46.33;39.00;;;;;19.69;100.00;99701.56;6316421;20;3609815;-60
2023/06/06 08:02:58;;;;;;;;;50.33;40.33;;;;;19.78;100.00;99700.66;6289602;20;3599274;-59
2023/06/06 08:05:27;;;;;;;;;46.67;40.00;;;;;19.80;100.00;99692.31;6285896;20;2855606;-59
2023/06/06 08:07:55;;;;;;;;;49.33;41.00;;;;;19.70;100.00;99706.03;6317608;20;3609732;-60
2023/06/06 08:10:23;;;;;;;;;47.00;39.33;;;;;19.36;100.00;99692.97;6284857;20;3583650;-59
2023/06/06 08:12:52;;;;;;;;;45.00;38.67;;;;;19.85;100.00;99698.16;6287409;20;3594095;-59
2023/06/06 08:15:21;;;;;;;;;44.00;37.33;;;;;19.66;100.00;99710.00;6287992;20;3600329;-60
2023/06/06 08:17:50;;;;;;;;;43.00;35.33;;;;;19.66;100.00;99705.44;6287866;20;3598260;-60
2023/06/06 08:20:19;;;;;;;;;43.67;37.33;;;;;19.79;100.00;99696.91;6283396;20;2855528;-60
2023/06/06 08:22:51;;;;;;;;;43.33;37.00;;;;;19.71;100.00;99703.13;6317786;20;3593010;-59
2023/06/06 08:25:20;;;;;;;;;45.00;38.00;;;;;19.89;100.00;99705.88;6282511;20;2845154;-59
2023/06/06 08:27:48;;;;;;;;;45.67;38.33;;;;;19.61;100.00;99704.16;6318081;20;3603395;-60
2023/06/06 08:30:16;;;;;;;;;42.33;36.67;;;;;19.41;100.00;99698.81;6282912;20;3578393;-59
2023/06/06 08:32:45;;;;;;;;;46.67;38.67;;;;;19.68;100.00;99697.13;6287497;20;3615941;-60
2023/06/06 08:35:13;;;;;;;;;45.00;38.00;;;;;19.88;100.00;99701.44;6287018;20;3605533;-60
2023/06/06 08:37:41;;;;;;;;;46.33;38.33;;;;;20.03;100.00;99700.91;6285511;20;3607564;-60
2023/06/06 08:40:11;;;;;;;;;46.00;36.00;;;;;19.87;100.00;99705.16;6284102;20;3582551;-61
2023/06/06 08:42:50;;;;;;;;;44.33;36.00;;;;;19.85;100.00;99700.88;6286078;20;3595038;-60
2023/06/06 08:45:22;;;;;;;;;44.00;37.33;;;;;19.92;100.00;99702.00;6284610;20;2849406;-61
2023/06/06 08:47:54;;;;;;;;;37.67;34.33;;;;;19.89;100.00;99703.16;6313048;20;3589842;-60
2023/06/06 08:50:25;;;;;;;;;37.67;34.00;;;;;19.69;100.00;99693.38;6282067;20;2854526;-60
2023/06/06 08:52:54;;;;;;;;;42.00;34.67;;;;;19.78;100.00;99699.81;6315099;20;3598296;-60
2023/06/06 08:55:23;;;;;;;;;39.33;35.00;;;;;20.17;100.00;99700.38;6287636;20;3577347;-60
2023/06/06 08:57:52;;;;;;;;;42.00;34.67;;;;;20.35;100.00;99706.69;6284731;20;3574238;-60
2023/06/06 09:00:23;;;;;;;;;47.00;37.00;;;;;20.45;100.00;99711.19;6283209;20;3611701;-61
2023/06/06 09:02:54;;;;;;;;;40.33;35.00;;;;;20.51;100.00;99707.81;6280960;20;3596103;-61
2023/06/06 09:05:22;;;;;;;;;40.00;36.00;;;;;20.53;100.00;99708.53;6282664;20;3571082;-60
2023/06/06 09:07:55;;;;;;;;;39.67;34.33;;;;;20.76;100.00;99712.50;6275159;20;3595192;-60
2023/06/06 09:10:24;;;;;;;;;37.00;34.00;;;;;20.88;100.00;99704.03;6277225;20;3573081;-60
2023/06/06 09:13:11;;;;;;;;;37.33;32.67;;;;;21.11;100.00;99707.94;6303443;20;3601433;-61
2023/06/06 09:15:41;;;;;;;;;36.33;32.33;;;;;20.88;100.00;99713.09;6279415;20;3604403;-61
2023/06/06 09:18:09;;;;;;;;;32.67;31.67;;;;;21.23;100.00;99711.25;6316528;20;3582708;-61
2023/06/06 09:20:37;;;;;;;;;30.00;29.00;;;;;21.34;100.00;99708.22;6283265;20;3591967;-61
2023/06/06 09:23:13;;;;;;;;;29.67;28.00;;;;;21.88;100.00;99717.03;6282052;20;3582563;-61
2023/06/06 09:25:49;;;;;;;;;21.33;21.33;;;;;21.60;100.00;99718.28;6313631;20;3562765;-61
2023/06/06 09:28:18;;;;;;;;;31.33;29.33;;;;;21.30;100.00;99705.97;6314919;20;3589929;-62
2023/06/06 09:30:47;;;;;;;;;37.75;32.00;;;;;21.58;100.00;99712.13;6286628;20;3606537;-61
2023/06/06 09:33:15;;;;;;;;;26.67;25.67;;;;;21.20;100.00;99706.97;6314592;20;3596133;-61
2023/06/06 09:35:44;;;;;;;;;24.00;24.00;;;;;21.66;100.00;99713.00;6282974;20;3602459;-60
2023/06/06 09:38:17;;;;;;;;;23.67;23.67;;;;;21.30;100.00;99706.88;6283939;20;3593147;-61
2023/06/06 09:40:58;;;;;;;;;22.67;19.67;;;;;21.69;100.00;99714.56;6284585;20;3581674;-61
2023/06/06 09:43:30;;;;;;;;;20.00;19.00;;;;;21.65;98.46;99716.78;6286141;20;3566967;-61
2023/06/06 09:45:59;;;;;;;;;20.33;20.33;;;;;21.64;100.00;99716.94;6279444;20;3575284;-61
2023/06/06 09:48:28;;;;;;;;;20.33;18.67;;;;;21.18;100.00;99706.28;6281739;20;3564860;-61
2023/06/06 09:50:57;;;;;;;;;21.00;19.67;;;;;21.24;100.00;99713.81;6281163;20;3577370;-61
2023/06/06 09:53:27;;;;;;;;;27.33;25.00;;;;;20.90;100.00;99721.13;6285068;20;3602390;-61
2023/06/06 09:56:03;;;;;;;;;28.75;24.25;;;;;20.38;100.00;99717.28;6282655;20;3600285;-60
2023/06/06 09:58:33;;;;;;;;;29.67;25.33;;;;;20.34;100.00;99713.13;6312681;20;3598304;-61
2023/06/06 10:01:03;;;;;;;;;26.67;26.00;;;;;20.15;100.00;99710.59;6279952;20;3600256;-60
2023/06/06 10:03:36;;;;;;;;;29.00;27.00;;;;;20.54;100.00;99704.84;6282464;20;3597203;-60
2023/06/06 10:06:06;;;;;;;;;23.33;23.00;;;;;20.29;100.00;99718.19;6277918;20;3575983;-60
2023/06/06 10:08:35;;;;;;;;;22.00;19.33;;;;;19.98;100.00;99708.69;6281474;20;3563842;-61
2023/06/06 10:11:05;;;;;;;;;19.00;18.00;;;;;20.35;100.00;99716.72;6274452;20;2835734;-60
2023/06/06 10:13:33;;;;;;;;;15.50;15.50;;;;;20.71;100.00;99717.56;6280900;20;2817965;-61
2023/06/06 10:16:04;;;;;;;;;12.00;12.00;;;;;20.93;100.00;99715.31;6280313;20;2684653;-62
2023/06/06 10:18:34;;;;;;;;;15.67;12.33;;;;;20.77;100.00;99713.34;6312868;20;3532570;-62
2023/06/06 10:21:04;;;;;;;;;13.67;13.67;;;;;20.51;100.00;99716.88;6305838;20;2483717;-61
2023/06/06 10:23:32;;;;;;;;;15.00;15.00;;;;;20.74;100.00;99722.69;6311448;20;2483744;-60
2023/06/06 10:26:02;;;;;;;;;11.67;11.67;;;;;20.40;100.00;99722.56;6306640;20;3513289;-61
2023/06/06 10:28:34;;;;;;;;;8.33;8.33;;;;;20.64;100.00;99719.22;6311896;20;2754506;-61
2023/06/06 10:31:17;;;;;;;;;3.60;3.60;;;;;20.91;98.97;99720.13;6335717;20;2753413;-61
2023/06/06 10:33:56;;;;;;;;;2.60;2.60;;;;;20.84;97.74;99728.06;6302491;20;2752428;-61
2023/06/06 10:36:24;;;;;;;;;4.00;3.00;;;;;21.34;96.25;99726.50;6278178;20;2740125;-60
2023/06/06 10:39:23;;;;;;;;;6.20;4.60;;;;;20.90;95.76;99721.13;6335976;20;2739853;-59
2023/06/06 10:41:59;;;;;;;;;6.33;6.00;;;;;21.17;93.99;99714.63;6312117;20;2740911;-60
2023/06/06 10:44:54;;;;;;;;;4.60;4.60;;;;;21.35;93.54;99714.56;6334062;20;2741940;-60
2023/06/06 10:47:35;;;;;;;;;6.20;6.20;;;;;21.19;94.31;99710.72;6338879;20;2746140;-61
2023/06/06 10:50:08;;;;;;;;;7.40;7.40;;;;;21.86;95.60;99699.06;6303540;20;2748329;-61
2023/06/06 10:53:05;;;;;;;;;9.60;9.00;;;;;22.39;93.02;99706.03;6302771;20;2772230;-61
2023/06/06 10:55:33;;;;;;;;;9.33;9.33;;;;;22.98;91.81;99705.84;6278616;20;3483585;-61
2023/06/06 10:58:33;;;;;;;;;10.25;9.75;;;;;22.46;91.43;99707.06;6336920;20;2677470;-60
2023/06/06 11:01:04;;;;;;;;;10.33;10.33;;;;;22.44;92.25;99700.91;6318297;20;2786772;-61
2023/06/06 11:03:40;;;;;;;;;13.00;12.00;;;;;22.60;91.63;99704.66;6315284;20;2483636;-61
2023/06/06 11:06:19;;;;;;;;;12.00;10.33;;;;;23.78;88.05;99704.94;6320420;20;3528371;-61
2023/06/06 11:08:56;;;;;;;;;15.00;13.00;;;;;23.59;83.31;99706.16;6318236;20;2483674;-61